This is the latest recevied weather packets stored in our database for station/object K0JSC-13. If no packets are shown the sender has not sent any weather packets the latest 10 day(s).
| Time | Temp. | Humidity | Pressure | Rain* | Wind** | Luminosity | Snow |
|---|---|---|---|---|---|---|---|
| 1777576684 | 6.11° C | 82% | 1000.6 hPa | 0 mm | - | - | - |
| 1777575603 | 6.11° C | 81% | 1000.7 hPa | 0 mm | - | - | - |
| 1777573623 | 6.11° C | 83% | 1000.8 hPa | 0 mm | - | - | - |
| 1777567503 | 5.56° C | 90% | 1001.3 hPa | 0 mm | - | - | - |
| 1777565477 | 4.44° C | 91% | 1001.1 hPa | 0.25 mm | - | - | - |
| 1777564803 | 3.89° C | 91% | 1001.2 hPa | 0.25 mm | - | - | - |
| 1777561203 | 3.33° C | 93% | 1001.3 hPa | 0.25 mm | - | - | - |
| 1777558278 | 3.33° C | 93% | 1001.7 hPa | 0.25 mm | - | - | - |
| 1777556703 | 2.78° C | 93% | 1001.7 hPa | 0 mm | - | - | - |
| 1777555083 | 2.78° C | 94% | 1001.4 hPa | 0 mm | - | - | - |
| 1777553643 | 2.78° C | 93% | 1001.2 hPa | 0 mm | - | - | - |
| 1777552023 | 2.78° C | 93% | 1000.7 hPa | 0.25 mm | - | - | - |
| 1777550043 | 3.33° C | 93% | 1000.4 hPa | 0.76 mm | - | - | - |
| 1777547883 | 3.33° C | 93% | 1000.6 hPa | 1.52 mm | - | - | - |
| 1777544284 | 3.89° C | 92% | 1000.4 hPa | 0.51 mm | - | - | - |
| 1777542303 | 4.44° C | 92% | 1000.1 hPa | 0 mm | - | - | - |
| 1777541358 | 4.44° C | 91% | 1000.1 hPa | 0.25 mm | - | - | - |
| 1777534563 | 6.11° C | 90% | 999.9 hPa | 0.25 mm | - | - | - |
| 1777532943 | 6.11° C | 90% | 999.8 hPa | 0.25 mm | - | - | - |
| 1777530963 | 6.11° C | 91% | 999.8 hPa | 1.27 mm | - | - | - |
| 1777529883 | 6.11° C | 90% | 999.7 hPa | 2.29 mm | - | - | - |
| 1777529343 | 6.11° C | 89% | 999.6 hPa | 2.03 mm | - | - | - |
| 1777521738 | 8.89° C | 82% | 999.2 hPa | 0.76 mm | - | - | - |
| 1777519217 | 10.56° C | 68% | 998.5 hPa | 0.25 mm | - | - | - |
| 1777518003 | 12.22° C | 52% | 997.6 hPa | 0 mm | - | - | - |
* Rain latest hour (hover to see other rain measurements)
** Current wind speed in m/s (hover to see current wind gust speed)